Flight Number: EUR2087 Duration: 1:15
Departure: Munich Int'l (EDDM) at 08:15 Distance: 369 Nm
Arrival: Paris Charles-de-Gaulle (LFPG) at 09:30 Equipment: MD-81

Weather Information
Munchen, Germany (EDDM) 48-21N 011-47E Feb 21, 2018 - 11:20 AM EST / 2018.02.21 1620 UTC
Wind: from the NNE (030 degrees) at 3 MPH (3 KT) (direction variable):0
Visibility: 5 mile(s):0 Temperature: 32 F (0 C) Dew Point: 23 F (-5 C) Relative Humidity: 69% Pressure (altimeter): 30.00 in. Hg (1016 hPa)
ob: EDDM 211620Z 03003KT 350V080 9000 NSC 00/M05 Q1016 NOSIG cycle: 16
Sunrise: 06:11 Sunset: 16:40 (UTC)

Paris-Aeroport Charles De Gaulle, France (LFPG) 49-01N 002-32E 109M Feb 21, 2018 - 11:30 AM EST / 2018.02.21 1630 UTC
Wind: from the NNE (020 degrees) at 14 MPH (12 KT):0
Visibility: 3 mile(s):0
Sky conditions: mostly clear Temperature: 39 F (4 C) Dew Point: 30 F (-1 C) Relative Humidity: 69% Pressure (altimeter): 30.15 in. Hg (1021 hPa)
ob: LFPG 211630Z 02012KT 6000 FEW018 04/M01 Q1021 TEMPO 6000 cycle: 16
Sunrise: 06:49 Sunset: 17:16 (UTC)

TAF:2018/02/21 13:57 TAF AMD LFPG 211245Z 2113/2218 03012KT 4000 HZ BKN020 TEMPO 2113/2117 6000 BECMG 2202/2204 4000 BR BKN005 BECMG 2207/2209 SCT010 BECMG 2212/2214 SCT025 TX06/2115Z TNM03/2206Z

Previous Pireps for this route
Date Aircraft Flight time Fuel used Landing rate On time
2012-10-24MD-811.2095730Yes
2013-09-16CRJ70001.357626-118No
2013-10-14MD-811.15271870No
2014-01-24MD-8101.3310421-170No
2014-03-19CRJ70001.347343-208No
2014-04-11CRJ70001.257150-256Yes
2014-05-10CRJ7001.2450300Yes
2014-05-24MD-811.24159910Yes
2014-07-10B73701.4013777-308Charter
2015-01-17CRJ7001.1532760Yes
2015-04-10CRJ7001.1535270Yes
2015-09-16CRJ7001.358112-805No
2015-11-11A32101.087686-175Charter
2016-03-07MD-8101.269535-133Yes
2016-08-27MD-8101.279575-272Yes
(pireps marked green are flown by you)

Route map